| time (UTC) | temp C | wind direction | speed KPH | gust KPH | rain 1hr cm | rain 24hr cm | rain mn cm | humidity % | barometer mb |
| 20260831134537 | 25 | 158 | 1.6 | 8.0 | 0.00 | 0.00 | 0.00 | 86 | 1014.3 |
| 20260831133033 | 24 | 156 | 0.0 | 0.0 | 0.00 | 0.00 | 0.00 | 89 | 1014.2 |
| 20260831131530 | 23 | 162 | 0.0 | 0.0 | 0.00 | 0.00 | 0.00 | 92 | 1014.2 |
| 20260831130027 | 22 | 87 | 0.0 | 0.0 | 0.00 | 0.00 | 0.00 | 91 | 1014.1 |
| 20260831124526 | 22 | 87 | 0.0 | 0.0 | 0.00 | 0.00 | 0.00 | 90 | 1014.0 |
| 20260831123030 | 22 | 87 | 0.0 | 0.0 | 0.00 | 0.00 | 0.00 | 91 | 1013.9 |
| 20260831121532 | 22 | 90 | 0.0 | 0.0 | 0.00 | 0.00 | 0.00 | 91 | 1013.7 |
| 20260831120022 | 23 | 114 | 0.0 | 0.0 | 0.00 | 0.00 | 0.00 | 91 | 1013.5 |
| 20260831114520 | 23 | 114 | 0.0 | 0.0 | 0.00 | 0.00 | 0.00 | 90 | 1013.6 |
| 20260831113020 | 23 | 114 | 0.0 | 0.0 | 0.00 | 0.00 | 0.00 | 90 | 1013.6 |
| 20260831111518 | 23 | 114 | 0.0 | 0.0 | 0.00 | 0.00 | 0.00 | 89 | 1013.5 |
| 20260831110017 | 23 | 114 | 0.0 | 0.0 | 0.00 | 0.00 | 0.00 | 89 | 1013.6 |
| 20260831104522 | 23 | 114 | 0.0 | 0.0 | 0.00 | 0.00 | 0.00 | 87 | 1013.6 |
| 20260831103014 | 23 | 137 | 0.0 | 0.0 | 0.00 | 0.00 | 0.00 | 87 | 1013.6 |
| 20260831101513 | 23 | 116 | 0.0 | 0.0 | 0.00 | 0.00 | 0.00 | 87 | 1013.7 |
| 20260831100019 | 23 | 133 | 0.0 | 3.2 | 0.00 | 0.00 | 0.00 | 87 | 1013.8 |
| 20260831094513 | 23 | 144 | 0.0 | 0.0 | 0.00 | 0.00 | 0.00 | 86 | 1013.7 |
| 20260831093013 | 23 | 144 | 0.0 | 4.8 | 0.00 | 0.00 | 0.00 | 85 | 1013.7 |
| 20260831091510 | 24 | 164 | 0.0 | 1.6 | 0.00 | 0.00 | 0.00 | 84 | 1013.7 |
| 20260831090009 | 24 | 164 | 0.0 | 1.6 | 0.00 | 0.00 | 0.00 | 85 | 1013.6 |
| 20260831084508 | 24 | 164 | 0.0 | 0.0 | 0.00 | 0.00 | 0.00 | 84 | 1013.5 |
| 20260831083006 | 24 | 164 | 0.0 | 3.2 | 0.00 | 0.00 | 0.00 | 83 | 1013.5 |
| 20260831081505 | 24 | 106 | 0.0 | 3.2 | 0.00 | 0.00 | 0.00 | 82 | 1013.7 |
| 20260831080011 | 25 | 154 | 0.0 | 8.0 | 0.00 | 0.00 | 0.00 | 81 | 1013.7 |
| 20260831074501 | 25 | 172 | 0.0 | 6.4 | 0.00 | 0.00 | 0.00 | 80 | 1013.8 |
| 20260831073103 | 25 | 174 | 0.0 | 6.4 | 0.00 | 0.00 | 0.00 | 78 | 1013.9 |
| 20260831071558 | 25 | 194 | 0.0 | 3.2 | 0.00 | 0.00 | 0.00 | 76 | 1013.9 |
| 20260831070112 | 25 | 99 | 0.0 | 6.4 | 0.00 | 0.00 | 0.00 | 75 | 1013.8 |
| 20260831064554 | 26 | 94 | 1.6 | 11.3 | 0.00 | 0.00 | 0.00 | 73 | 1013.8 |
| 20260831063054 | 26 | 91 | 0.0 | 6.4 | 0.00 | 0.00 | 0.00 | 72 | 1013.9 |
| 20260831061551 | 26 | 106 | 3.2 | 9.7 | 0.00 | 0.00 | 0.00 | 71 | 1013.8 |
| 20260831060048 | 26 | 80 | 1.6 | 9.7 | 0.00 | 0.00 | 0.00 | 70 | 1013.6 |
| 20260831054545 | 26 | 81 | 1.6 | 6.4 | 0.00 | 0.00 | 0.00 | 69 | 1013.4 |
| 20260831053044 | 27 | 88 | 4.8 | 11.3 | 0.00 | 0.00 | 0.00 | 67 | 1013.2 |
| 20260831051544 | 27 | 109 | 3.2 | 12.9 | 0.00 | 0.00 | 0.00 | 66 | 1013.0 |
| 20260831050037 | 27 | 73 | 3.2 | 9.7 | 0.00 | 0.00 | 0.00 | 65 | 1012.9 |
| 20260831044547 | 28 | 80 | 6.4 | 12.9 | 0.00 | 0.00 | 0.00 | 64 | 1012.9 |
| 20260831043036 | 28 | 76 | 3.2 | 12.9 | 0.00 | 0.00 | 0.00 | 65 | 1012.9 |
| 20260831041547 | 28 | 105 | 4.8 | 11.3 | 0.00 | 0.00 | 0.00 | 65 | 1012.7 |
| 20260831040035 | 28 | 57 | 4.8 | 11.3 | 0.00 | 0.00 | 0.00 | 64 | 1012.6 |
| 20260831034534 | 28 | 94 | 3.2 | 9.7 | 0.00 | 0.00 | 0.00 | 63 | 1012.4 |
| 20260831033034 | 29 | 97 | 4.8 | 11.3 | 0.00 | 0.00 | 0.00 | 63 | 1012.3 |
| 20260831031534 | 29 | 64 | 4.8 | 12.9 | 0.00 | 0.00 | 0.00 | 62 | 1012.3 |
| 20260831030032 | 28 | 102 | 1.6 | 8.0 | 0.00 | 0.00 | 0.00 | 61 | 1012.1 |
| 20260831024533 | 28 | 89 | 1.6 | 8.0 | 0.00 | 0.00 | 0.00 | 59 | 1012.0 |
| 20260831023031 | 28 | 100 | 0.0 | 3.2 | 0.00 | 0.00 | 0.00 | 58 | 1011.7 |
| 20260831021537 | 28 | 95 | 0.0 | 0.0 | 0.00 | 0.00 | 0.00 | 56 | 1011.3 |
| 20260831020030 | 28 | 80 | 1.6 | 3.2 | 0.00 | 0.00 | 0.00 | 54 | 1011.0 |
| 20260831014529 | 29 | 71 | 0.0 | 0.0 | 0.00 | 0.00 | 0.00 | 54 | 1010.9 |
| 20260831013029 | 30 | 71 | 0.0 | 0.0 | 0.00 | 0.00 | 0.00 | 52 | 1010.8 |
| 20260831011531 | 30 | 71 | 1.6 | 4.8 | 0.00 | 0.00 | 0.00 | 51 | 1010.8 |
| 20260831010026 | 31 | 80 | 3.2 | 4.8 | 0.00 | 0.00 | 0.00 | 49 | 1010.8 |
| 20260831004528 | 32 | 102 | 1.6 | 9.7 | 0.00 | 0.00 | 0.00 | 46 | 1010.7 |
| 20260831003026 | 33 | 142 | 0.0 | 9.7 | 0.00 | 0.00 | 0.00 | 45 | 1010.5 |
| 20260831001525 | 33 | 104 | 1.6 | 11.3 | 0.00 | 0.00 | 0.00 | 43 | 1010.5 |
| 20260831000036 | 33 | 127 | 3.2 | 12.9 | 0.00 | 0.00 | 0.00 | 41 | 1010.5 |
| 20260830234524 | 33 | 90 | 4.8 | 11.3 | 0.00 | 0.00 | 0.00 | 42 | 1010.5 |
| 20260830233033 | 33 | 176 | 6.4 | 29.0 | 0.00 | 0.00 | 0.00 | 42 | 1010.5 |
| 20260830231529 | 33 | 144 | 1.6 | 12.9 | 0.00 | 0.00 | 0.00 | 44 | 1010.5 |
| 20260830230021 | 33 | 92 | 8.0 | 16.1 | 0.00 | 0.00 | 0.00 | 44 | 1010.6 |
| 20260830224520 | 35 | 126 | 6.4 | 14.5 | 0.00 | 0.00 | 0.00 | 43 | 1010.6 |
| 20260830223020 | 35 | 199 | 6.4 | 16.1 | 0.00 | 0.00 | 0.00 | 42 | 1010.6 |
| 20260830221516 | 34 | 159 | 4.8 | 12.9 | 0.00 | 0.00 | 0.00 | 43 | 1010.8 |
| 20260830220015 | 34 | 151 | 4.8 | 12.9 | 0.00 | 0.00 | 0.00 | 44 | 1010.7 |
| 20260830214513 | 34 | 184 | 3.2 | 14.5 | 0.00 | 0.00 | 0.00 | 44 | 1010.9 |
| 20260830213012 | 34 | 104 | 6.4 | 16.1 | 0.00 | 0.00 | 0.00 | 42 | 1011.1 |
| 20260830211514 | 35 | 167 | 4.8 | 17.7 | 0.00 | 0.00 | 0.00 | 44 | 1011.2 |
| 20260830210007 | 34 | 156 | 4.8 | 22.5 | 0.00 | 0.00 | 0.00 | 43 | 1011.4 |
| 20260830204506 | 34 | 156 | 3.2 | 16.1 | 0.00 | 0.00 | 0.00 | 45 | 1011.7 |
| 20260830203005 | 35 | 67 | 6.4 | 16.1 | 0.00 | 0.00 | 0.00 | 42 | 1011.9 |
| 20260830201502 | 35 | 257 | 8.0 | 22.5 | 0.00 | 0.00 | 0.00 | 44 | 1012.1 |
| 20260830200058 | 34 | 166 | 4.8 | 14.5 | 0.00 | 0.00 | 0.00 | 46 | 1012.3 |
| 20260830194556 | 34 | 171 | 3.2 | 12.9 | 0.00 | 0.00 | 0.00 | 46 | 1012.7 |
| 20260830193054 | 34 | 121 | 6.4 | 16.1 | 0.00 | 0.00 | 0.00 | 44 | 1012.8 |
| 20260830191551 | 33 | 182 | 6.4 | 14.5 | 0.00 | 0.00 | 0.00 | 48 | 1013.1 |
| 20260830190049 | 33 | 113 | 8.0 | 20.9 | 0.00 | 0.00 | 0.00 | 48 | 1013.2 |
| 20260830184546 | 33 | 109 | 4.8 | 12.9 | 0.00 | 0.00 | 0.00 | 49 | 1013.4 |
| 20260830183044 | 33 | 252 | 3.2 | 9.7 | 0.00 | 0.00 | 0.00 | 50 | 1013.6 |
| 20260830181539 | 32 | 261 | 3.2 | 14.5 | 0.00 | 0.00 | 0.00 | 52 | 1014.0 |
| 20260830180038 | 32 | 144 | 6.4 | 19.3 | 0.00 | 0.00 | 0.00 | 50 | 1014.3 |
| 20260830174535 | 32 | 102 | 4.8 | 17.7 | 0.00 | 0.00 | 0.00 | 52 | 1014.4 |
| 20260830173032 | 32 | 175 | 3.2 | 9.7 | 0.00 | 0.00 | 0.00 | 55 | 1014.5 |
| 20260830171529 | 31 | 277 | 3.2 | 12.9 | 0.00 | 0.00 | 0.00 | 59 | 1014.7 |
| 20260830170025 | 31 | 144 | 6.4 | 14.5 | 0.00 | 0.00 | 0.00 | 59 | 1015.0 |
| 20260830164547 | 30 | 252 | 3.2 | 16.1 | 0.00 | 0.00 | 0.00 | 62 | 1015.0 |
| 20260830163026 | 30 | 251 | 6.4 | 12.9 | 0.00 | 0.00 | 0.00 | 64 | 1015.2 |
| 20260830161518 | 29 | 251 | 4.8 | 12.9 | 0.00 | 0.00 | 0.00 | 63 | 1015.0 |
| 20260830160016 | 29 | 168 | 3.2 | 12.9 | 0.00 | 0.00 | 0.00 | 65 | 1015.1 |
| 20260830154514 | 28 | 205 | 8.0 | 16.1 | 0.00 | 0.00 | 0.00 | 66 | 1015.0 |
| 20260830153011 | 28 | 183 | 3.2 | 11.3 | 0.00 | 0.00 | 0.00 | 70 | 1015.0 |
| 20260830151509 | 27 | 169 | 3.2 | 9.7 | 0.00 | 0.00 | 0.00 | 72 | 1015.0 |
| 20260830150006 | 27 | 222 | 4.8 | 11.3 | 0.00 | 0.00 | 0.00 | 74 | 1015.0 |
| 20260830144504 | 26 | 116 | 3.2 | 8.0 | 0.00 | 0.00 | 0.00 | 76 | 1015.1 |
| 20260830143003 | 26 | 293 | 1.6 | 11.3 | 0.00 | 0.00 | 0.00 | 80 | 1015.1 |
| 20260830141502 | 25 | 264 | 3.2 | 12.9 | 0.00 | 0.00 | 0.00 | 82 | 1015.1 |
| 20260830140001 | 25 | 107 | 0.0 | 4.8 | 0.00 | 0.00 | 0.00 | 85 | 1015.2 |